sensor_id;sensor_type;location;lat;lon;timestamp;P1;durP1;ratioP1;P2;durP2;ratioP2
74229;SDS011;62589;12.568;99.958;2023-08-06T00:01:38;6.20;;;1.75;;
74229;SDS011;62589;12.568;99.958;2023-08-06T00:04:04;4.97;;;1.77;;
74229;SDS011;62589;12.568;99.958;2023-08-06T00:06:30;7.57;;;2.03;;
74229;SDS011;62589;12.568;99.958;2023-08-06T00:08:57;6.80;;;1.92;;
74229;SDS011;62589;12.568;99.958;2023-08-06T00:11:23;9.73;;;1.48;;
74229;SDS011;62589;12.568;99.958;2023-08-06T00:13:50;5.97;;;1.77;;
74229;SDS011;62589;12.568;99.958;2023-08-06T00:16:16;4.10;;;1.63;;
74229;SDS011;62589;12.568;99.958;2023-08-06T00:18:42;6.57;;;1.65;;
74229;SDS011;62589;12.568;99.958;2023-08-06T00:21:09;5.90;;;1.88;;
74229;SDS011;62589;12.568;99.958;2023-08-06T00:23:37;3.67;;;1.60;;
74229;SDS011;62589;12.568;99.958;2023-08-06T00:26:04;6.93;;;1.80;;
74229;SDS011;62589;12.568;99.958;2023-08-06T00:28:30;9.25;;;1.90;;
74229;SDS011;62589;12.568;99.958;2023-08-06T00:30:57;6.47;;;1.77;;
74229;SDS011;62589;12.568;99.958;2023-08-06T00:33:24;8.85;;;1.80;;
74229;SDS011;62589;12.568;99.958;2023-08-06T00:35:50;6.57;;;2.13;;
74229;SDS011;62589;12.568;99.958;2023-08-06T00:38:17;10.23;;;1.95;;
74229;SDS011;62589;12.568;99.958;2023-08-06T00:40:43;8.52;;;2.20;;
74229;SDS011;62589;12.568;99.958;2023-08-06T00:43:10;6.28;;;2.10;;
74229;SDS011;62589;12.568;99.958;2023-08-06T00:45:37;8.90;;;1.77;;
74229;SDS011;62589;12.568;99.958;2023-08-06T00:48:03;8.20;;;1.92;;
74229;SDS011;62589;12.568;99.958;2023-08-06T00:50:35;5.13;;;1.98;;
74229;SDS011;62589;12.568;99.958;2023-08-06T00:53:01;4.85;;;1.88;;
74229;SDS011;62589;12.568;99.958;2023-08-06T00:55:28;6.30;;;1.95;;
74229;SDS011;62589;12.568;99.958;2023-08-06T00:57:55;6.53;;;1.85;;
74229;SDS011;62589;12.568;99.958;2023-08-06T01:00:22;6.80;;;1.80;;
74229;SDS011;62589;12.568;99.958;2023-08-06T01:02:50;8.80;;;1.92;;
74229;SDS011;62589;12.568;99.958;2023-08-06T01:05:17;4.10;;;1.60;;
74229;SDS011;62589;12.568;99.958;2023-08-06T01:10:49;3.05;;;1.63;;
74229;SDS011;62589;12.568;99.958;2023-08-06T01:13:33;6.70;;;1.48;;
74229;SDS011;62589;12.568;99.958;2023-08-06T01:16:14;2.72;;;1.30;;
74229;SDS011;62589;12.568;99.958;2023-08-06T01:18:42;5.05;;;1.65;;
74229;SDS011;62589;12.568;99.958;2023-08-06T01:21:12;5.00;;;1.40;;
74229;SDS011;62589;12.568;99.958;2023-08-06T01:23:39;5.20;;;1.20;;
74229;SDS011;62589;12.568;99.958;2023-08-06T01:29:05;4.03;;;1.30;;
74229;SDS011;62589;12.568;99.958;2023-08-06T01:31:43;5.88;;;1.60;;
74229;SDS011;62589;12.568;99.958;2023-08-06T01:34:13;3.10;;;1.13;;
74229;SDS011;62589;12.568;99.958;2023-08-06T01:36:46;3.38;;;1.42;;
74229;SDS011;62589;12.568;99.958;2023-08-06T01:39:13;4.00;;;1.35;;
74229;SDS011;62589;12.568;99.958;2023-08-06T01:41:39;5.68;;;1.50;;
74229;SDS011;62589;12.568;99.958;2023-08-06T01:44:06;5.22;;;1.63;;
74229;SDS011;62589;12.568;99.958;2023-08-06T01:46:32;3.92;;;1.45;;
74229;SDS011;62589;12.568;99.958;2023-08-06T01:48:59;5.07;;;1.45;;
74229;SDS011;62589;12.568;99.958;2023-08-06T01:51:25;5.72;;;1.63;;
74229;SDS011;62589;12.568;99.958;2023-08-06T01:53:52;5.00;;;1.50;;
74229;SDS011;62589;12.568;99.958;2023-08-06T01:56:18;4.07;;;1.30;;
74229;SDS011;62589;12.568;99.958;2023-08-06T01:58:45;8.52;;;1.77;;
74229;SDS011;62589;12.568;99.958;2023-08-06T02:01:11;4.05;;;1.85;;
74229;SDS011;62589;12.568;99.958;2023-08-06T02:03:38;3.78;;;1.38;;
74229;SDS011;62589;12.568;99.958;2023-08-06T02:06:04;2.65;;;1.08;;
74229;SDS011;62589;12.568;99.958;2023-08-06T02:08:30;5.82;;;1.50;;
74229;SDS011;62589;12.568;99.958;2023-08-06T02:10:57;9.88;;;1.52;;
74229;SDS011;62589;12.568;99.958;2023-08-06T02:13:24;9.90;;;1.48;;
74229;SDS011;62589;12.568;99.958;2023-08-06T02:15:50;5.38;;;1.20;;
74229;SDS011;62589;12.568;99.958;2023-08-06T02:18:17;4.55;;;1.48;;
74229;SDS011;62589;12.568;99.958;2023-08-06T02:20:43;4.75;;;1.35;;
74229;SDS011;62589;12.568;99.958;2023-08-06T02:23:20;4.45;;;1.30;;
74229;SDS011;62589;12.568;99.958;2023-08-06T02:25:47;3.40;;;1.00;;
74229;SDS011;62589;12.568;99.958;2023-08-06T02:28:13;5.22;;;1.30;;
74229;SDS011;62589;12.568;99.958;2023-08-06T02:30:39;6.07;;;1.48;;
74229;SDS011;62589;12.568;99.958;2023-08-06T02:33:14;5.55;;;1.20;;
74229;SDS011;62589;12.568;99.958;2023-08-06T02:35:41;3.72;;;1.10;;
74229;SDS011;62589;12.568;99.958;2023-08-06T02:38:07;4.78;;;1.23;;
74229;SDS011;62589;12.568;99.958;2023-08-06T02:40:34;4.10;;;1.40;;
74229;SDS011;62589;12.568;99.958;2023-08-06T02:43:00;3.78;;;1.42;;
74229;SDS011;62589;12.568;99.958;2023-08-06T02:45:26;7.00;;;1.55;;
74229;SDS011;62589;12.568;99.958;2023-08-06T02:47:54;4.60;;;0.98;;
74229;SDS011;62589;12.568;99.958;2023-08-06T02:50:20;5.97;;;1.30;;
74229;SDS011;62589;12.568;99.958;2023-08-06T02:52:47;6.10;;;1.55;;
74229;SDS011;62589;12.568;99.958;2023-08-06T02:55:14;5.50;;;1.17;;
74229;SDS011;62589;12.568;99.958;2023-08-06T02:57:41;5.35;;;1.15;;
74229;SDS011;62589;12.568;99.958;2023-08-06T03:00:07;4.43;;;1.10;;
74229;SDS011;62589;12.568;99.958;2023-08-06T03:02:34;3.55;;;1.30;;
74229;SDS011;62589;12.568;99.958;2023-08-06T03:05:01;6.90;;;1.45;;
74229;SDS011;62589;12.568;99.958;2023-08-06T03:07:27;4.63;;;1.27;;
74229;SDS011;62589;12.568;99.958;2023-08-06T03:09:53;1.63;;;0.73;;
74229;SDS011;62589;12.568;99.958;2023-08-06T03:12:20;4.72;;;1.40;;
74229;SDS011;62589;12.568;99.958;2023-08-06T03:14:46;5.97;;;1.60;;
74229;SDS011;62589;12.568;99.958;2023-08-06T03:17:13;4.32;;;1.60;;
74229;SDS011;62589;12.568;99.958;2023-08-06T03:19:40;7.30;;;1.13;;
74229;SDS011;62589;12.568;99.958;2023-08-06T03:22:06;5.28;;;1.33;;
74229;SDS011;62589;12.568;99.958;2023-08-06T03:24:33;6.10;;;1.40;;
74229;SDS011;62589;12.568;99.958;2023-08-06T03:26:59;5.30;;;1.25;;
74229;SDS011;62589;12.568;99.958;2023-08-06T03:29:26;5.10;;;1.30;;
74229;SDS011;62589;12.568;99.958;2023-08-06T03:31:52;2.70;;;0.90;;
74229;SDS011;62589;12.568;99.958;2023-08-06T03:34:18;3.72;;;1.13;;
74229;SDS011;62589;12.568;99.958;2023-08-06T03:36:45;6.72;;;1.40;;
74229;SDS011;62589;12.568;99.958;2023-08-06T03:39:11;4.50;;;1.08;;
74229;SDS011;62589;12.568;99.958;2023-08-06T03:41:39;4.90;;;1.17;;
74229;SDS011;62589;12.568;99.958;2023-08-06T03:44:06;3.70;;;1.27;;
74229;SDS011;62589;12.568;99.958;2023-08-06T03:46:32;3.40;;;1.15;;
74229;SDS011;62589;12.568;99.958;2023-08-06T03:48:59;6.13;;;1.73;;
74229;SDS011;62589;12.568;99.958;2023-08-06T03:51:26;5.10;;;1.25;;
74229;SDS011;62589;12.568;99.958;2023-08-06T03:53:52;6.03;;;1.45;;
74229;SDS011;62589;12.568;99.958;2023-08-06T03:56:19;4.22;;;1.08;;
74229;SDS011;62589;12.568;99.958;2023-08-06T03:58:45;2.95;;;1.25;;
74229;SDS011;62589;12.568;99.958;2023-08-06T04:01:12;5.90;;;1.30;;
74229;SDS011;62589;12.568;99.958;2023-08-06T04:03:38;5.00;;;1.55;;
74229;SDS011;62589;12.568;99.958;2023-08-06T04:06:05;4.88;;;1.27;;
74229;SDS011;62589;12.568;99.958;2023-08-06T04:08:31;4.45;;;1.27;;
74229;SDS011;62589;12.568;99.958;2023-08-06T04:10:58;6.57;;;1.42;;
74229;SDS011;62589;12.568;99.958;2023-08-06T04:13:24;5.45;;;1.55;;
74229;SDS011;62589;12.568;99.958;2023-08-06T04:15:51;5.88;;;1.40;;
74229;SDS011;62589;12.568;99.958;2023-08-06T04:18:18;7.63;;;1.63;;
74229;SDS011;62589;12.568;99.958;2023-08-06T04:20:45;6.47;;;1.70;;
74229;SDS011;62589;12.568;99.958;2023-08-06T04:23:12;5.10;;;1.60;;
74229;SDS011;62589;12.568;99.958;2023-08-06T04:25:39;9.20;;;1.73;;
74229;SDS011;62589;12.568;99.958;2023-08-06T04:28:05;5.55;;;1.70;;
74229;SDS011;62589;12.568;99.958;2023-08-06T04:30:32;5.30;;;1.85;;
74229;SDS011;62589;12.568;99.958;2023-08-06T04:32:58;7.95;;;1.45;;
74229;SDS011;62589;12.568;99.958;2023-08-06T04:35:25;7.97;;;2.13;;
74229;SDS011;62589;12.568;99.958;2023-08-06T04:37:51;3.60;;;1.15;;
74229;SDS011;62589;12.568;99.958;2023-08-06T04:40:18;4.80;;;1.55;;
74229;SDS011;62589;12.568;99.958;2023-08-06T04:42:44;2.65;;;1.30;;
74229;SDS011;62589;12.568;99.958;2023-08-06T04:45:10;7.13;;;1.23;;
74229;SDS011;62589;12.568;99.958;2023-08-06T04:47:37;5.80;;;1.60;;
74229;SDS011;62589;12.568;99.958;2023-08-06T04:50:03;4.50;;;1.70;;
74229;SDS011;62589;12.568;99.958;2023-08-06T04:52:30;3.50;;;1.27;;
74229;SDS011;62589;12.568;99.958;2023-08-06T04:54:57;8.20;;;1.90;;
74229;SDS011;62589;12.568;99.958;2023-08-06T04:57:24;5.13;;;1.50;;
74229;SDS011;62589;12.568;99.958;2023-08-06T04:59:50;6.28;;;1.45;;
74229;SDS011;62589;12.568;99.958;2023-08-06T05:02:17;6.05;;;1.52;;
74229;SDS011;62589;12.568;99.958;2023-08-06T05:04:43;5.00;;;1.85;;
74229;SDS011;62589;12.568;99.958;2023-08-06T05:07:10;4.22;;;1.15;;
74229;SDS011;62589;12.568;99.958;2023-08-06T05:09:36;6.18;;;1.70;;
74229;SDS011;62589;12.568;99.958;2023-08-06T05:12:03;3.80;;;1.58;;
74229;SDS011;62589;12.568;99.958;2023-08-06T05:14:30;5.82;;;1.58;;
74229;SDS011;62589;12.568;99.958;2023-08-06T05:16:56;6.45;;;1.77;;
74229;SDS011;62589;12.568;99.958;2023-08-06T05:19:23;6.57;;;1.30;;
74229;SDS011;62589;12.568;99.958;2023-08-06T05:21:49;3.83;;;1.15;;
74229;SDS011;62589;12.568;99.958;2023-08-06T05:24:15;2.10;;;1.02;;
74229;SDS011;62589;12.568;99.958;2023-08-06T05:26:42;4.95;;;1.30;;
74229;SDS011;62589;12.568;99.958;2023-08-06T05:29:11;5.05;;;1.60;;
74229;SDS011;62589;12.568;99.958;2023-08-06T05:31:38;6.75;;;1.40;;
74229;SDS011;62589;12.568;99.958;2023-08-06T05:34:04;3.67;;;1.52;;
74229;SDS011;62589;12.568;99.958;2023-08-06T05:36:31;5.47;;;1.23;;
74229;SDS011;62589;12.568;99.958;2023-08-06T05:38:57;4.30;;;1.52;;
74229;SDS011;62589;12.568;99.958;2023-08-06T05:41:24;8.32;;;2.10;;
74229;SDS011;62589;12.568;99.958;2023-08-06T05:43:50;8.55;;;1.50;;
74229;SDS011;62589;12.568;99.958;2023-08-06T05:46:16;4.70;;;1.33;;
74229;SDS011;62589;12.568;99.958;2023-08-06T05:48:43;7.25;;;1.40;;
74229;SDS011;62589;12.568;99.958;2023-08-06T05:51:09;5.88;;;1.40;;
74229;SDS011;62589;12.568;99.958;2023-08-06T05:53:38;7.00;;;1.20;;
74229;SDS011;62589;12.568;99.958;2023-08-06T05:56:04;5.78;;;0.90;;
74229;SDS011;62589;12.568;99.958;2023-08-06T05:58:30;5.60;;;1.40;;
74229;SDS011;62589;12.568;99.958;2023-08-06T06:00:57;5.10;;;1.38;;
74229;SDS011;62589;12.568;99.958;2023-08-06T06:03:23;6.45;;;1.30;;
74229;SDS011;62589;12.568;99.958;2023-08-06T06:05:50;7.85;;;1.10;;
74229;SDS011;62589;12.568;99.958;2023-08-06T06:08:16;4.38;;;1.30;;
74229;SDS011;62589;12.568;99.958;2023-08-06T06:10:43;5.75;;;1.10;;
74229;SDS011;62589;12.568;99.958;2023-08-06T06:13:09;3.20;;;1.02;;
74229;SDS011;62589;12.568;99.958;2023-08-06T06:15:36;5.70;;;1.55;;
74229;SDS011;62589;12.568;99.958;2023-08-06T06:18:03;4.53;;;1.23;;
74229;SDS011;62589;12.568;99.958;2023-08-06T06:20:31;4.97;;;1.00;;
74229;SDS011;62589;12.568;99.958;2023-08-06T06:22:58;6.88;;;1.25;;
74229;SDS011;62589;12.568;99.958;2023-08-06T06:25:25;6.65;;;0.98;;
74229;SDS011;62589;12.568;99.958;2023-08-06T06:27:51;5.53;;;1.17;;
74229;SDS011;62589;12.568;99.958;2023-08-06T06:30:18;4.53;;;1.70;;
74229;SDS011;62589;12.568;99.958;2023-08-06T06:32:44;4.90;;;1.23;;
74229;SDS011;62589;12.568;99.958;2023-08-06T06:35:11;3.78;;;1.20;;
74229;SDS011;62589;12.568;99.958;2023-08-06T06:37:38;3.80;;;1.13;;
74229;SDS011;62589;12.568;99.958;2023-08-06T06:40:04;6.85;;;1.25;;
74229;SDS011;62589;12.568;99.958;2023-08-06T06:42:31;4.38;;;0.98;;
74229;SDS011;62589;12.568;99.958;2023-08-06T06:44:58;4.90;;;1.20;;
74229;SDS011;62589;12.568;99.958;2023-08-06T06:47:24;4.00;;;1.20;;
74229;SDS011;62589;12.568;99.958;2023-08-06T06:49:51;6.88;;;1.02;;
74229;SDS011;62589;12.568;99.958;2023-08-06T06:52:17;3.45;;;1.20;;
74229;SDS011;62589;12.568;99.958;2023-08-06T06:54:44;6.72;;;1.33;;
74229;SDS011;62589;12.568;99.958;2023-08-06T06:57:10;3.55;;;1.48;;
74229;SDS011;62589;12.568;99.958;2023-08-06T06:59:36;4.43;;;1.08;;
74229;SDS011;62589;12.568;99.958;2023-08-06T07:02:03;4.07;;;0.93;;
74229;SDS011;62589;12.568;99.958;2023-08-06T07:04:30;3.78;;;0.88;;
74229;SDS011;62589;12.568;99.958;2023-08-06T07:06:56;3.30;;;1.02;;
74229;SDS011;62589;12.568;99.958;2023-08-06T07:09:23;4.75;;;0.98;;
74229;SDS011;62589;12.568;99.958;2023-08-06T07:11:49;2.65;;;0.82;;
74229;SDS011;62589;12.568;99.958;2023-08-06T07:14:16;6.70;;;1.05;;
74229;SDS011;62589;12.568;99.958;2023-08-06T07:16:43;5.03;;;0.80;;
74229;SDS011;62589;12.568;99.958;2023-08-06T07:19:09;2.42;;;0.88;;
74229;SDS011;62589;12.568;99.958;2023-08-06T07:21:35;2.75;;;0.60;;
74229;SDS011;62589;12.568;99.958;2023-08-06T07:24:02;4.05;;;1.30;;
74229;SDS011;62589;12.568;99.958;2023-08-06T07:26:28;4.93;;;1.00;;
74229;SDS011;62589;12.568;99.958;2023-08-06T07:28:55;6.32;;;1.13;;
74229;SDS011;62589;12.568;99.958;2023-08-06T07:31:21;4.85;;;1.20;;
74229;SDS011;62589;12.568;99.958;2023-08-06T07:33:48;3.03;;;1.10;;
74229;SDS011;62589;12.568;99.958;2023-08-06T07:36:14;6.53;;;1.10;;
74229;SDS011;62589;12.568;99.958;2023-08-06T07:38:41;4.57;;;1.05;;
74229;SDS011;62589;12.568;99.958;2023-08-06T07:41:08;6.05;;;1.50;;
74229;SDS011;62589;12.568;99.958;2023-08-06T07:43:34;4.35;;;0.98;;
74229;SDS011;62589;12.568;99.958;2023-08-06T07:46:01;4.05;;;1.20;;
74229;SDS011;62589;12.568;99.958;2023-08-06T07:48:28;4.50;;;1.00;;
74229;SDS011;62589;12.568;99.958;2023-08-06T07:50:55;5.53;;;1.38;;
74229;SDS011;62589;12.568;99.958;2023-08-06T07:53:21;7.22;;;1.30;;
74229;SDS011;62589;12.568;99.958;2023-08-06T07:55:49;5.50;;;1.33;;
74229;SDS011;62589;12.568;99.958;2023-08-06T07:58:16;4.70;;;1.20;;
74229;SDS011;62589;12.568;99.958;2023-08-06T08:00:43;3.90;;;1.25;;
74229;SDS011;62589;12.568;99.958;2023-08-06T08:03:12;6.32;;;1.15;;
74229;SDS011;62589;12.568;99.958;2023-08-06T08:05:43;10.43;;;1.25;;
74229;SDS011;62589;12.568;99.958;2023-08-06T08:08:10;4.68;;;1.40;;
74229;SDS011;62589;12.568;99.958;2023-08-06T08:10:36;2.90;;;1.05;;
74229;SDS011;62589;12.568;99.958;2023-08-06T08:13:04;4.25;;;1.85;;
74229;SDS011;62589;12.568;99.958;2023-08-06T08:15:31;5.65;;;1.58;;
74229;SDS011;62589;12.568;99.958;2023-08-06T08:17:58;3.97;;;1.90;;
74229;SDS011;62589;12.568;99.958;2023-08-06T08:20:25;6.40;;;1.30;;
74229;SDS011;62589;12.568;99.958;2023-08-06T08:22:57;6.55;;;1.90;;
74229;SDS011;62589;12.568;99.958;2023-08-06T08:25:25;4.03;;;1.10;;
74229;SDS011;62589;12.568;99.958;2023-08-06T08:27:52;6.22;;;1.00;;
74229;SDS011;62589;12.568;99.958;2023-08-06T08:30:20;3.92;;;1.20;;
74229;SDS011;62589;12.568;99.958;2023-08-06T08:32:47;3.13;;;1.08;;
74229;SDS011;62589;12.568;99.958;2023-08-06T08:35:14;4.22;;;1.23;;
74229;SDS011;62589;12.568;99.958;2023-08-06T08:37:41;6.43;;;1.25;;
74229;SDS011;62589;12.568;99.958;2023-08-06T08:40:09;5.93;;;1.20;;
74229;SDS011;62589;12.568;99.958;2023-08-06T08:42:36;6.75;;;1.20;;
74229;SDS011;62589;12.568;99.958;2023-08-06T08:45:08;3.97;;;1.15;;
74229;SDS011;62589;12.568;99.958;2023-08-06T08:47:40;3.72;;;1.45;;
74229;SDS011;62589;12.568;99.958;2023-08-06T08:50:08;6.97;;;1.52;;
74229;SDS011;62589;12.568;99.958;2023-08-06T08:52:36;4.22;;;1.40;;
74229;SDS011;62589;12.568;99.958;2023-08-06T08:55:06;2.45;;;1.00;;
74229;SDS011;62589;12.568;99.958;2023-08-06T08:57:33;6.50;;;1.10;;
74229;SDS011;62589;12.568;99.958;2023-08-06T09:00:00;3.35;;;1.17;;
74229;SDS011;62589;12.568;99.958;2023-08-06T09:02:28;3.90;;;1.13;;
74229;SDS011;62589;12.568;99.958;2023-08-06T09:04:55;3.63;;;1.02;;
74229;SDS011;62589;12.568;99.958;2023-08-06T09:07:31;4.18;;;0.98;;
74229;SDS011;62589;12.568;99.958;2023-08-06T09:10:02;5.03;;;1.20;;
74229;SDS011;62589;12.568;99.958;2023-08-06T09:12:30;5.75;;;1.60;;
74229;SDS011;62589;12.568;99.958;2023-08-06T09:14:57;3.10;;;1.10;;
74229;SDS011;62589;12.568;99.958;2023-08-06T09:17:23;3.95;;;1.58;;
74229;SDS011;62589;12.568;99.958;2023-08-06T09:19:50;6.32;;;1.38;;
74229;SDS011;62589;12.568;99.958;2023-08-06T09:22:16;3.78;;;1.17;;
74229;SDS011;62589;12.568;99.958;2023-08-06T09:24:43;3.17;;;1.00;;
74229;SDS011;62589;12.568;99.958;2023-08-06T09:27:16;3.88;;;1.17;;
74229;SDS011;62589;12.568;99.958;2023-08-06T09:29:44;4.20;;;0.88;;
74229;SDS011;62589;12.568;99.958;2023-08-06T09:32:11;5.55;;;1.20;;
74229;SDS011;62589;12.568;99.958;2023-08-06T09:34:39;5.65;;;1.30;;
74229;SDS011;62589;12.568;99.958;2023-08-06T09:37:08;6.75;;;1.23;;
74229;SDS011;62589;12.568;99.958;2023-08-06T09:39:37;3.70;;;0.80;;
74229;SDS011;62589;12.568;99.958;2023-08-06T09:42:05;4.15;;;1.10;;
74229;SDS011;62589;12.568;99.958;2023-08-06T09:44:32;3.25;;;0.57;;
74229;SDS011;62589;12.568;99.958;2023-08-06T09:47:00;3.05;;;0.95;;
74229;SDS011;62589;12.568;99.958;2023-08-06T09:49:28;5.65;;;1.13;;
74229;SDS011;62589;12.568;99.958;2023-08-06T09:52:11;2.78;;;1.05;;
74229;SDS011;62589;12.568;99.958;2023-08-06T09:54:40;4.00;;;1.60;;
74229;SDS011;62589;12.568;99.958;2023-08-06T09:57:09;5.47;;;1.60;;
74229;SDS011;62589;12.568;99.958;2023-08-06T09:59:37;6.40;;;2.30;;
74229;SDS011;62589;12.568;99.958;2023-08-06T10:02:10;8.80;;;1.85;;
74229;SDS011;62589;12.568;99.958;2023-08-06T10:04:39;3.47;;;1.70;;
74229;SDS011;62589;12.568;99.958;2023-08-06T10:07:06;5.65;;;1.90;;
74229;SDS011;62589;12.568;99.958;2023-08-06T10:09:32;4.60;;;1.20;;
74229;SDS011;62589;12.568;99.958;2023-08-06T10:11:58;7.18;;;1.10;;
74229;SDS011;62589;12.568;99.958;2023-08-06T10:14:27;5.75;;;1.25;;
74229;SDS011;62589;12.568;99.958;2023-08-06T10:16:57;5.72;;;1.58;;
74229;SDS011;62589;12.568;99.958;2023-08-06T10:19:25;6.57;;;1.30;;
74229;SDS011;62589;12.568;99.958;2023-08-06T10:27:29;6.65;;;1.35;;
74229;SDS011;62589;12.568;99.958;2023-08-06T10:32:50;4.72;;;1.10;;
74229;SDS011;62589;12.568;99.958;2023-08-06T10:35:28;7.15;;;1.70;;
74229;SDS011;62589;12.568;99.958;2023-08-06T10:37:59;6.78;;;1.25;;
74229;SDS011;62589;12.568;99.958;2023-08-06T10:40:29;6.35;;;1.33;;
74229;SDS011;62589;12.568;99.958;2023-08-06T10:43:00;3.75;;;1.15;;
74229;SDS011;62589;12.568;99.958;2023-08-06T10:45:27;4.43;;;1.17;;
74229;SDS011;62589;12.568;99.958;2023-08-06T10:47:57;4.00;;;1.55;;
74229;SDS011;62589;12.568;99.958;2023-08-06T10:50:24;4.50;;;1.13;;
74229;SDS011;62589;12.568;99.958;2023-08-06T10:52:50;7.25;;;1.42;;
74229;SDS011;62589;12.568;99.958;2023-08-06T10:55:24;5.53;;;1.25;;
74229;SDS011;62589;12.568;99.958;2023-08-06T10:57:52;3.15;;;1.17;;
74229;SDS011;62589;12.568;99.958;2023-08-06T11:00:20;5.25;;;1.38;;
74229;SDS011;62589;12.568;99.958;2023-08-06T11:02:48;5.47;;;1.42;;
74229;SDS011;62589;12.568;99.958;2023-08-06T11:05:15;3.67;;;1.27;;
74229;SDS011;62589;12.568;99.958;2023-08-06T11:07:42;4.63;;;1.05;;
74229;SDS011;62589;12.568;99.958;2023-08-06T11:10:10;6.75;;;1.45;;
74229;SDS011;62589;12.568;99.958;2023-08-06T11:12:37;4.50;;;1.33;;
74229;SDS011;62589;12.568;99.958;2023-08-06T11:15:04;3.78;;;1.20;;
74229;SDS011;62589;12.568;99.958;2023-08-06T11:17:32;3.05;;;1.23;;
74229;SDS011;62589;12.568;99.958;2023-08-06T11:20:00;5.78;;;1.65;;
74229;SDS011;62589;12.568;99.958;2023-08-06T11:22:28;3.75;;;1.00;;
74229;SDS011;62589;12.568;99.958;2023-08-06T11:24:54;3.55;;;1.10;;
74229;SDS011;62589;12.568;99.958;2023-08-06T11:27:21;4.03;;;1.10;;
74229;SDS011;62589;12.568;99.958;2023-08-06T11:29:47;2.58;;;1.08;;
74229;SDS011;62589;12.568;99.958;2023-08-06T11:32:14;3.85;;;1.00;;
74229;SDS011;62589;12.568;99.958;2023-08-06T11:34:41;3.50;;;1.02;;
74229;SDS011;62589;12.568;99.958;2023-08-06T11:37:09;2.72;;;0.85;;
74229;SDS011;62589;12.568;99.958;2023-08-06T11:39:37;4.70;;;1.63;;
74229;SDS011;62589;12.568;99.958;2023-08-06T11:42:05;6.38;;;2.08;;
74229;SDS011;62589;12.568;99.958;2023-08-06T11:44:33;6.25;;;1.85;;
74229;SDS011;62589;12.568;99.958;2023-08-06T11:47:02;5.65;;;2.05;;
74229;SDS011;62589;12.568;99.958;2023-08-06T11:49:37;6.32;;;2.05;;
74229;SDS011;62589;12.568;99.958;2023-08-06T11:52:18;7.47;;;2.90;;
74229;SDS011;62589;12.568;99.958;2023-08-06T11:54:59;10.18;;;3.30;;
74229;SDS011;62589;12.568;99.958;2023-08-06T11:57:36;7.97;;;3.63;;
74229;SDS011;62589;12.568;99.958;2023-08-06T12:00:05;7.32;;;3.15;;
74229;SDS011;62589;12.568;99.958;2023-08-06T12:02:38;7.07;;;2.53;;
74229;SDS011;62589;12.568;99.958;2023-08-06T12:08:01;4.90;;;1.45;;
74229;SDS011;62589;12.568;99.958;2023-08-06T12:10:29;5.95;;;1.85;;
74229;SDS011;62589;12.568;99.958;2023-08-06T12:12:57;6.15;;;1.30;;
74229;SDS011;62589;12.568;99.958;2023-08-06T12:15:23;4.97;;;1.42;;
74229;SDS011;62589;12.568;99.958;2023-08-06T12:17:50;4.18;;;2.30;;
74229;SDS011;62589;12.568;99.958;2023-08-06T12:20:17;7.40;;;4.60;;
74229;SDS011;62589;12.568;99.958;2023-08-06T12:22:43;14.38;;;6.80;;
74229;SDS011;62589;12.568;99.958;2023-08-06T12:25:11;11.25;;;7.50;;
74229;SDS011;62589;12.568;99.958;2023-08-06T12:27:38;15.05;;;7.43;;
74229;SDS011;62589;12.568;99.958;2023-08-06T12:30:12;12.95;;;6.75;;
74229;SDS011;62589;12.568;99.958;2023-08-06T12:32:39;7.00;;;5.35;;
74229;SDS011;62589;12.568;99.958;2023-08-06T12:35:06;9.75;;;4.60;;
74229;SDS011;62589;12.568;99.958;2023-08-06T12:37:33;9.10;;;3.67;;
74229;SDS011;62589;12.568;99.958;2023-08-06T12:40:00;4.03;;;2.72;;
74229;SDS011;62589;12.568;99.958;2023-08-06T12:42:27;5.35;;;2.40;;
74229;SDS011;62589;12.568;99.958;2023-08-06T12:44:53;4.85;;;2.22;;
74229;SDS011;62589;12.568;99.958;2023-08-06T12:47:19;4.88;;;2.03;;
74229;SDS011;62589;12.568;99.958;2023-08-06T12:49:46;7.20;;;2.17;;
74229;SDS011;62589;12.568;99.958;2023-08-06T12:52:12;5.93;;;1.83;;
74229;SDS011;62589;12.568;99.958;2023-08-06T12:54:40;4.65;;;1.55;;
74229;SDS011;62589;12.568;99.958;2023-08-06T12:57:07;3.78;;;1.10;;
74229;SDS011;62589;12.568;99.958;2023-08-06T12:59:33;4.05;;;1.23;;
74229;SDS011;62589;12.568;99.958;2023-08-06T13:02:02;3.47;;;1.08;;
74229;SDS011;62589;12.568;99.958;2023-08-06T13:04:28;8.43;;;1.23;;
74229;SDS011;62589;12.568;99.958;2023-08-06T13:06:54;5.57;;;1.30;;
74229;SDS011;62589;12.568;99.958;2023-08-06T13:09:21;4.20;;;1.00;;
74229;SDS011;62589;12.568;99.958;2023-08-06T13:11:47;5.00;;;1.27;;
74229;SDS011;62589;12.568;99.958;2023-08-06T13:14:15;5.85;;;1.35;;
74229;SDS011;62589;12.568;99.958;2023-08-06T13:16:42;3.42;;;0.93;;
74229;SDS011;62589;12.568;99.958;2023-08-06T13:19:09;6.88;;;1.60;;
74229;SDS011;62589;12.568;99.958;2023-08-06T13:24:29;4.95;;;1.30;;
74229;SDS011;62589;12.568;99.958;2023-08-06T13:26:55;4.72;;;1.35;;
74229;SDS011;62589;12.568;99.958;2023-08-06T13:29:22;4.82;;;1.40;;
74229;SDS011;62589;12.568;99.958;2023-08-06T13:31:50;7.40;;;1.65;;
74229;SDS011;62589;12.568;99.958;2023-08-06T13:34:17;6.93;;;1.58;;
74229;SDS011;62589;12.568;99.958;2023-08-06T13:36:43;4.80;;;1.20;;
74229;SDS011;62589;12.568;99.958;2023-08-06T13:39:10;6.13;;;1.60;;
74229;SDS011;62589;12.568;99.958;2023-08-06T13:41:37;5.00;;;1.40;;
74229;SDS011;62589;12.568;99.958;2023-08-06T13:44:04;4.72;;;1.60;;
74229;SDS011;62589;12.568;99.958;2023-08-06T13:46:32;5.47;;;1.65;;
74229;SDS011;62589;12.568;99.958;2023-08-06T13:48:58;3.53;;;1.08;;
74229;SDS011;62589;12.568;99.958;2023-08-06T13:51:24;5.68;;;1.77;;
74229;SDS011;62589;12.568;99.958;2023-08-06T13:53:51;5.00;;;1.52;;
74229;SDS011;62589;12.568;99.958;2023-08-06T13:56:17;5.70;;;1.63;;
74229;SDS011;62589;12.568;99.958;2023-08-06T13:58:44;3.42;;;1.05;;
74229;SDS011;62589;12.568;99.958;2023-08-06T14:01:11;5.13;;;1.50;;
74229;SDS011;62589;12.568;99.958;2023-08-06T14:03:38;4.82;;;1.33;;
74229;SDS011;62589;12.568;99.958;2023-08-06T14:06:05;7.00;;;1.33;;
74229;SDS011;62589;12.568;99.958;2023-08-06T14:08:31;5.93;;;1.83;;
74229;SDS011;62589;12.568;99.958;2023-08-06T14:10:57;4.88;;;1.17;;
74229;SDS011;62589;12.568;99.958;2023-08-06T14:13:24;3.55;;;1.35;;
74229;SDS011;62589;12.568;99.958;2023-08-06T14:15:51;3.80;;;1.45;;
74229;SDS011;62589;12.568;99.958;2023-08-06T14:18:17;5.93;;;1.50;;
74229;SDS011;62589;12.568;99.958;2023-08-06T14:20:44;4.10;;;1.48;;
74229;SDS011;62589;12.568;99.958;2023-08-06T14:23:10;4.50;;;1.35;;
74229;SDS011;62589;12.568;99.958;2023-08-06T14:25:37;4.85;;;1.40;;
74229;SDS011;62589;12.568;99.958;2023-08-06T14:28:05;6.53;;;1.85;;
74229;SDS011;62589;12.568;99.958;2023-08-06T14:30:32;5.13;;;1.42;;
74229;SDS011;62589;12.568;99.958;2023-08-06T14:32:59;6.78;;;1.75;;
74229;SDS011;62589;12.568;99.958;2023-08-06T14:35:29;6.60;;;1.98;;
74229;SDS011;62589;12.568;99.958;2023-08-06T14:37:55;6.82;;;1.90;;
74229;SDS011;62589;12.568;99.958;2023-08-06T14:40:21;3.70;;;1.50;;
74229;SDS011;62589;12.568;99.958;2023-08-06T14:42:48;8.02;;;1.50;;
74229;SDS011;62589;12.568;99.958;2023-08-06T14:45:14;6.18;;;1.60;;
74229;SDS011;62589;12.568;99.958;2023-08-06T14:47:41;8.18;;;2.13;;
74229;SDS011;62589;12.568;99.958;2023-08-06T14:50:07;6.10;;;1.92;;
74229;SDS011;62589;12.568;99.958;2023-08-06T14:52:34;4.10;;;1.42;;
74229;SDS011;62589;12.568;99.958;2023-08-06T14:55:01;5.35;;;1.63;;